Time;durP1;ratioP1;P1;durP2;ratioP2;P2;SDS_P1;SDS_P2;PMS_P1;PMS_P2;Temp;Humidity;BMP_temperature;BMP_pressure;BME280_temperature;BME280_humidity;BME280_pressure;Samples;Min_cycle;Max_cycle;Signal;HPM_P1;HPM_P2
2022/06/07 00:01:26;;;;;;;1.50;1.00;;;15.50;98.20;;;;;;5052852;28;20534;-78
2022/06/07 00:03:53;;;;;;;1.50;1.00;;;15.50;98.20;;;;;;5046519;28;20994;-78
2022/06/07 00:06:20;;;;;;;1.50;1.00;;;15.50;98.20;;;;;;5047010;28;20527;-78
2022/06/07 00:08:47;;;;;;;1.47;1.00;;;15.40;98.20;;;;;;5055980;28;20556;-78
2022/06/07 00:11:14;;;;;;;1.50;1.00;;;15.30;98.20;;;;;;5037107;28;20486;-78
2022/06/07 00:13:41;;;;;;;1.50;0.90;;;15.30;98.20;;;;;;5044841;28;20490;-78
2022/06/07 00:16:08;;;;;;;1.50;1.00;;;15.20;98.20;;;;;;5037949;28;20951;-78
2022/06/07 00:18:36;;;;;;;1.50;1.03;;;15.10;98.20;;;;;;5046820;28;20470;-78
2022/06/07 00:21:03;;;;;;;1.50;1.00;;;15.00;98.20;;;;;;5038796;28;20470;-79
2022/06/07 00:23:34;;;;;;;1.50;1.00;;;15.00;98.20;;;;;;5049038;28;20470;-79
2022/06/07 00:26:01;;;;;;;1.50;1.00;;;15.00;98.20;;;;;;5031074;28;20942;-78
2022/06/07 00:28:29;;;;;;;1.50;0.90;;;15.00;98.20;;;;;;5049561;28;20469;-78
2022/06/07 00:30:56;;;;;;;1.50;1.00;;;15.00;98.20;;;;;;5046494;28;20469;-79
2022/06/07 00:33:25;;;;;;;1.47;1.00;;;15.00;98.20;;;;;;5045783;28;20546;-79
2022/06/07 00:35:54;;;;;;;1.47;1.00;;;14.90;98.20;;;;;;5051099;28;20467;-79
2022/06/07 00:38:21;;;;;;;1.50;1.00;;;14.80;98.20;;;;;;5038645;28;20537;-79
2022/06/07 00:40:47;;;;;;;1.43;1.00;;;14.80;98.20;;;;;;5052659;28;20458;-79
2022/06/07 00:43:14;;;;;;;1.50;1.00;;;14.80;98.20;;;;;;5047824;28;20454;-79
2022/06/07 00:45:41;;;;;;;1.50;1.00;;;14.70;98.20;;;;;;5047998;28;20979;-79
2022/06/07 00:48:09;;;;;;;1.50;1.00;;;14.70;98.20;;;;;;5045379;28;21138;-79
2022/06/07 00:50:43;;;;;;;1.50;1.00;;;14.70;98.20;;;;;;5050125;28;20517;-79
2022/06/07 00:53:23;;;;;;;1.50;1.00;;;14.70;98.20;;;;;;5048863;28;20478;-79
2022/06/07 00:55:50;;;;;;;1.50;1.00;;;14.70;98.20;;;;;;5046743;28;20508;-78
2022/06/07 00:58:17;;;;;;;1.50;1.00;;;14.70;98.20;;;;;;5046233;28;20513;-79
2022/06/07 01:00:44;;;;;;;1.50;1.00;;;14.70;98.20;;;;;;5044732;28;20550;-79
2022/06/07 01:03:12;;;;;;;1.50;1.00;;;14.70;98.20;;;;;;5023801;28;20466;-79
2022/06/07 01:05:39;;;;;;;1.47;1.00;;;14.70;98.20;;;;;;5044773;28;21114;-79
2022/06/07 01:10:54;;;;;;;1.50;1.00;;;14.70;98.20;;;;;;5023955;28;20474;-79
2022/06/07 01:13:25;;;;;;;1.50;1.00;;;14.60;98.20;;;;;;5050189;28;20458;-79
2022/06/07 01:15:58;;;;;;;1.50;1.10;;;14.60;98.20;;;;;;5034676;28;20858;-78
2022/06/07 01:18:25;;;;;;;1.50;1.00;;;14.60;98.20;;;;;;5042227;28;20467;-79
2022/06/07 01:21:14;;;;;;;1.50;1.00;;;14.60;98.20;;;;;;5033091;28;20461;-78
2022/06/07 01:23:42;;;;;;;1.50;1.00;;;14.60;98.20;;;;;;5047825;28;20478;-79
2022/06/07 01:26:09;;;;;;;1.50;1.00;;;14.50;98.20;;;;;;5047976;28;20638;-79
2022/06/07 01:28:36;;;;;;;1.50;0.97;;;14.40;98.20;;;;;;5035566;28;20463;-79
2022/06/07 01:31:02;;;;;;;1.50;0.93;;;14.30;98.20;;;;;;5037770;28;20496;-79
2022/06/07 01:33:29;;;;;;;1.50;1.10;;;14.20;98.20;;;;;;5046482;28;20465;-79
2022/06/07 01:36:01;;;;;;;1.50;1.00;;;14.20;98.20;;;;;;5036260;28;20847;-79
2022/06/07 01:38:32;;;;;;;1.50;1.10;;;14.10;98.20;;;;;;5050108;28;20458;-79
2022/06/07 01:43:43;;;;;;;1.50;1.10;;;14.10;98.20;;;;;;5053785;28;21018;-79
2022/06/07 01:46:10;;;;;;;1.50;1.00;;;14.00;98.20;;;;;;5045488;28;20503;-79
2022/06/07 01:48:37;;;;;;;1.50;1.00;;;14.00;98.20;;;;;;5053234;28;20477;-79
2022/06/07 01:51:06;;;;;;;1.50;1.00;;;14.00;98.20;;;;;;5026783;28;20487;-78
2022/06/07 01:53:35;;;;;;;1.50;1.10;;;14.00;98.20;;;;;;5052438;28;20546;-79
2022/06/07 01:56:04;;;;;;;1.50;1.00;;;14.00;98.20;;;;;;5027269;28;20463;-79
2022/06/07 01:58:31;;;;;;;1.50;1.00;;;13.90;98.20;;;;;;5058697;28;20553;-78
2022/06/07 02:00:58;;;;;;;1.50;1.07;;;13.90;98.20;;;;;;5034582;28;20458;-80
2022/06/07 02:03:25;;;;;;;1.50;1.00;;;13.90;98.20;;;;;;5048352;28;20465;-79
2022/06/07 02:05:56;;;;;;;1.50;1.00;;;13.90;98.20;;;;;;5037021;28;20562;-79
2022/06/07 02:08:23;;;;;;;1.50;1.03;;;13.80;98.20;;;;;;5042748;28;20462;-79
2022/06/07 02:10:52;;;;;;;1.50;1.10;;;13.80;98.20;;;;;;5039014;28;21001;-78
2022/06/07 02:13:23;;;;;;;1.50;1.03;;;13.80;98.20;;;;;;5063689;28;20477;-78
2022/06/07 02:15:50;;;;;;;1.50;1.00;;;13.90;98.20;;;;;;5043713;28;20955;-78
2022/06/07 02:18:17;;;;;;;1.50;1.00;;;13.90;98.20;;;;;;5038129;28;20459;-79
2022/06/07 02:20:44;;;;;;;1.50;1.00;;;13.90;98.20;;;;;;5033705;28;20464;-78
2022/06/07 02:23:11;;;;;;;1.50;1.00;;;13.90;98.20;;;;;;5007235;28;20503;-78
2022/06/07 02:25:42;;;;;;;1.50;1.00;;;13.90;98.20;;;;;;5034341;28;20487;-78
2022/06/07 02:28:11;;;;;;;1.50;1.00;;;13.80;98.20;;;;;;5053095;28;20458;-78
2022/06/07 02:30:38;;;;;;;1.50;1.00;;;13.80;98.20;;;;;;5041401;28;20577;-78
2022/06/07 02:33:05;;;;;;;1.50;1.00;;;13.80;98.20;;;;;;5037966;28;20505;-79
2022/06/07 02:35:32;;;;;;;1.50;1.10;;;13.80;98.20;;;;;;5042677;28;20484;-78
2022/06/07 02:37:59;;;;;;;1.50;1.10;;;13.80;98.20;;;;;;5051701;28;20466;-78
2022/06/07 02:40:26;;;;;;;1.50;1.10;;;13.70;98.20;;;;;;5034461;28;20461;-79
2022/06/07 02:42:53;;;;;;;1.50;1.00;;;13.70;98.20;;;;;;5036591;28;20480;-79
2022/06/07 02:45:21;;;;;;;1.50;1.07;;;13.60;98.20;;;;;;5041191;28;20486;-79
2022/06/07 02:47:48;;;;;;;1.50;1.07;;;13.70;98.20;;;;;;5035811;28;20489;-79
2022/06/07 02:50:15;;;;;;;1.50;1.00;;;13.70;98.20;;;;;;5051984;28;20492;-79
2022/06/07 02:52:42;;;;;;;1.50;1.00;;;13.60;98.20;;;;;;5055680;28;20486;-79
2022/06/07 02:55:10;;;;;;;1.50;1.00;;;13.60;98.20;;;;;;5051590;28;20479;-78
2022/06/07 02:57:37;;;;;;;1.50;1.10;;;13.60;98.20;;;;;;5040947;28;20951;-78
2022/06/07 03:00:05;;;;;;;1.50;1.00;;;13.60;98.20;;;;;;5040263;28;20455;-78
2022/06/07 03:02:33;;;;;;;1.50;1.00;;;13.60;98.20;;;;;;5036914;28;20608;-78
2022/06/07 03:05:00;;;;;;;1.50;1.00;;;13.50;98.20;;;;;;5047007;28;20482;-79
2022/06/07 03:07:27;;;;;;;1.50;1.00;;;13.50;98.20;;;;;;5045256;28;20546;-78
2022/06/07 03:09:54;;;;;;;1.50;1.03;;;13.40;98.20;;;;;;5050136;28;20490;-78
2022/06/07 03:12:21;;;;;;;1.50;0.90;;;13.40;98.20;;;;;;5053478;28;20491;-78
2022/06/07 03:14:48;;;;;;;1.50;1.00;;;13.40;98.20;;;;;;5048256;28;20569;-78
2022/06/07 03:17:15;;;;;;;1.50;0.97;;;13.30;98.20;;;;;;5036978;28;20950;-78
2022/06/07 03:19:43;;;;;;;1.50;0.90;;;13.30;98.20;;;;;;5046804;28;20459;-79
2022/06/07 03:22:17;;;;;;;1.50;1.00;;;13.30;98.20;;;;;;5065852;28;20498;-78
2022/06/07 03:24:44;;;;;;;1.50;1.03;;;13.30;98.20;;;;;;5053343;28;20514;-79
2022/06/07 03:27:11;;;;;;;1.50;1.10;;;13.30;98.20;;;;;;5044803;28;20459;-79
2022/06/07 03:29:38;;;;;;;1.50;1.00;;;13.30;98.20;;;;;;5048348;28;20466;-80
2022/06/07 03:32:06;;;;;;;1.50;1.00;;;13.30;98.20;;;;;;5039233;28;21039;-78
2022/06/07 03:34:33;;;;;;;1.50;1.00;;;13.30;98.20;;;;;;5041386;28;20518;-79
2022/06/07 03:37:02;;;;;;;1.50;1.10;;;13.30;98.20;;;;;;5034978;28;20488;-78
2022/06/07 03:39:29;;;;;;;1.50;1.00;;;13.30;98.20;;;;;;5032438;28;20467;-78
2022/06/07 03:41:56;;;;;;;1.50;1.10;;;13.30;98.20;;;;;;5049417;28;20566;-79
2022/06/07 03:44:23;;;;;;;1.50;1.00;;;13.30;98.20;;;;;;5038896;28;20490;-78
2022/06/07 03:46:50;;;;;;;1.50;1.00;;;13.30;98.20;;;;;;5039837;28;20463;-79
2022/06/07 03:49:18;;;;;;;1.50;0.90;;;13.30;98.20;;;;;;5032150;28;20890;-79
2022/06/07 03:51:48;;;;;;;1.50;1.00;;;13.30;98.20;;;;;;5035305;28;20490;-79
2022/06/07 03:54:16;;;;;;;1.50;1.00;;;13.30;98.20;;;;;;5044782;28;20598;-79
2022/06/07 03:56:44;;;;;;;1.50;1.00;;;13.30;98.20;;;;;;5047867;28;20462;-79
2022/06/07 03:59:11;;;;;;;1.50;1.00;;;13.30;98.20;;;;;;5051381;28;20934;-79
2022/06/07 04:01:38;;;;;;;1.47;1.00;;;13.30;98.20;;;;;;5036435;28;21485;-79
2022/06/07 04:04:09;;;;;;;1.50;1.00;;;13.30;98.20;;;;;;5048415;28;20506;-79
2022/06/07 04:06:39;;;;;;;1.50;1.00;;;13.30;98.20;;;;;;5049157;28;20477;-79
2022/06/07 04:09:07;;;;;;;1.50;1.00;;;13.30;98.20;;;;;;5039205;28;20578;-78
2022/06/07 04:11:35;;;;;;;1.93;1.73;;;13.30;98.20;;;;;;5035435;28;20486;-78
2022/06/07 04:14:03;;;;;;;1.50;1.00;;;13.30;98.20;;;;;;5041118;28;21126;-78
2022/06/07 04:16:32;;;;;;;1.50;1.00;;;13.40;98.20;;;;;;5035264;28;20473;-78
2022/06/07 04:18:59;;;;;;;1.47;1.00;;;13.40;98.20;;;;;;5050942;28;20530;-78
2022/06/07 04:21:26;;;;;;;1.50;1.00;;;13.40;98.20;;;;;;5032290;28;20483;-78
2022/06/07 04:23:54;;;;;;;1.50;1.00;;;13.40;98.20;;;;;;5042375;28;21094;-78
2022/06/07 04:26:23;;;;;;;1.50;1.00;;;13.40;98.20;;;;;;5027497;28;20481;-78
2022/06/07 04:28:51;;;;;;;1.47;1.00;;;13.40;98.20;;;;;;5051758;28;20461;-78
2022/06/07 04:31:21;;;;;;;1.50;1.00;;;13.40;98.20;;;;;;5050568;28;20986;-78
2022/06/07 04:33:48;;;;;;;1.50;1.00;;;13.50;98.20;;;;;;5043936;28;20556;-78
2022/06/07 04:36:18;;;;;;;1.50;1.00;;;13.50;98.20;;;;;;5030913;28;20981;-78
2022/06/07 04:38:46;;;;;;;1.50;1.10;;;13.60;98.20;;;;;;5033269;28;20471;-78
2022/06/07 04:41:18;;;;;;;1.50;1.00;;;13.70;98.20;;;;;;5051736;28;20469;-78
2022/06/07 04:43:47;;;;;;;1.50;1.00;;;13.80;98.20;;;;;;5050565;28;21071;-78
2022/06/07 04:46:15;;;;;;;1.50;1.00;;;14.00;98.20;;;;;;5033493;28;20480;-79
2022/06/07 04:48:43;;;;;;;1.50;1.10;;;14.30;98.20;;;;;;5047033;28;20473;-79
2022/06/07 04:51:13;;;;;;;1.50;1.13;;;14.60;98.20;;;;;;5032601;28;20500;-78
2022/06/07 04:53:40;;;;;;;1.50;1.00;;;14.80;98.20;;;;;;5040424;28;20486;-80
2022/06/07 04:56:09;;;;;;;1.50;1.00;;;15.00;98.20;;;;;;5034912;28;20470;-80
2022/06/07 04:58:36;;;;;;;1.50;0.90;;;15.20;98.20;;;;;;5050553;28;20462;-80
2022/06/07 05:01:09;;;;;;;1.70;1.30;;;15.30;98.20;;;;;;5051764;28;20537;-80
2022/06/07 05:03:37;;;;;;;1.50;1.00;;;15.50;98.20;;;;;;5049536;28;21050;-80
2022/06/07 05:06:04;;;;;;;1.50;1.00;;;15.60;98.20;;;;;;5038363;28;20570;-79
2022/06/07 05:08:31;;;;;;;1.50;1.00;;;15.70;97.70;;;;;;5049356;28;20470;-79
2022/06/07 05:10:59;;;;;;;1.50;0.93;;;15.70;97.60;;;;;;5027539;28;20588;-79
2022/06/07 05:13:26;;;;;;;1.50;0.90;;;15.80;97.10;;;;;;5053349;28;20542;-79
2022/06/07 05:15:56;;;;;;;1.50;1.00;;;15.90;97.00;;;;;;5040875;28;20561;-79
2022/06/07 05:18:23;;;;;;;1.50;0.90;;;16.00;97.70;;;;;;5052454;28;20512;-79
2022/06/07 05:20:51;;;;;;;1.50;0.90;;;16.10;96.40;;;;;;5055541;28;20477;-78
2022/06/07 05:23:18;;;;;;;1.50;1.10;;;16.20;96.20;;;;;;5042210;28;20470;-79
2022/06/07 05:25:54;;;;;;;1.50;0.90;;;16.30;95.40;;;;;;5032879;28;21005;-78
2022/06/07 05:28:20;;;;;;;1.50;0.90;;;16.30;95.10;;;;;;5054720;28;20470;-78
2022/06/07 05:31:02;;;;;;;1.50;0.90;;;16.40;95.00;;;;;;5040109;28;20485;-78
2022/06/07 05:33:29;;;;;;;1.50;0.90;;;16.40;94.90;;;;;;5044124;28;20839;-78
2022/06/07 05:35:59;;;;;;;1.50;1.00;;;16.40;94.50;;;;;;5055405;28;20466;-79
2022/06/07 05:38:26;;;;;;;1.50;0.90;;;16.50;94.40;;;;;;5054137;28;20474;-79
2022/06/07 05:40:53;;;;;;;1.50;0.90;;;16.50;94.40;;;;;;5043773;28;20522;-77
2022/06/07 05:43:20;;;;;;;1.50;1.00;;;16.50;94.40;;;;;;5055513;28;20462;-77
2022/06/07 05:45:48;;;;;;;1.50;1.00;;;16.50;94.60;;;;;;5045282;28;20462;-77
2022/06/07 05:48:16;;;;;;;1.50;0.97;;;16.50;94.50;;;;;;5040203;28;20492;-78
2022/06/07 05:50:44;;;;;;;1.50;0.90;;;16.50;94.10;;;;;;5033172;28;20490;-78
2022/06/07 05:53:13;;;;;;;1.50;1.00;;;16.60;94.70;;;;;;5046812;28;20838;-77
2022/06/07 05:55:40;;;;;;;1.50;1.00;;;16.70;94.90;;;;;;5032883;28;20564;-77
2022/06/07 05:58:07;;;;;;;1.50;0.90;;;16.80;94.40;;;;;;5039694;28;20830;-77
2022/06/07 06:00:34;;;;;;;1.50;1.00;;;16.80;94.30;;;;;;5041617;28;20545;-77
2022/06/07 06:03:01;;;;;;;1.47;0.90;;;16.90;94.00;;;;;;5049320;28;20473;-74
2022/06/07 06:05:28;;;;;;;1.50;1.00;;;17.00;94.20;;;;;;5033330;28;20894;-75
2022/06/07 06:10:41;;;;;;;1.50;0.97;;;17.70;93.80;;;;;;5032356;28;21424;-77
2022/06/07 06:13:08;;;;;;;1.50;0.90;;;18.10;92.50;;;;;;5037579;28;20559;-76
2022/06/07 06:15:35;;;;;;;1.50;0.90;;;18.40;91.10;;;;;;5039984;28;20851;-77
2022/06/07 06:18:02;;;;;;;1.50;0.90;;;18.80;89.50;;;;;;5036565;28;20589;-78
2022/06/07 06:20:29;;;;;;;1.50;0.90;;;19.10;88.80;;;;;;5032247;28;20463;-77
2022/06/07 06:22:56;;;;;;;1.50;0.90;;;19.50;87.60;;;;;;5042870;28;20466;-77
2022/06/07 06:25:23;;;;;;;1.50;1.00;;;19.70;87.10;;;;;;5035389;28;20876;-76
2022/06/07 06:27:52;;;;;;;1.50;0.90;;;20.00;85.30;;;;;;5039522;28;20514;-77
2022/06/07 06:30:20;;;;;;;1.50;0.90;;;20.20;85.10;;;;;;5039595;28;20799;-77
2022/06/07 06:32:46;;;;;;;1.50;0.90;;;20.40;85.60;;;;;;5037863;28;20475;-77
2022/06/07 06:35:13;;;;;;;1.50;0.90;;;20.70;84.30;;;;;;5034283;28;20499;-77
2022/06/07 06:37:40;;;;;;;1.50;0.90;;;21.00;83.30;;;;;;5037205;28;20486;-77
2022/06/07 06:40:08;;;;;;;1.50;0.90;;;21.20;82.50;;;;;;5033332;28;20499;-76
2022/06/07 06:42:35;;;;;;;1.50;0.90;;;21.40;81.70;;;;;;5038456;28;21001;-76
2022/06/07 06:45:04;;;;;;;1.50;0.90;;;21.50;82.40;;;;;;5041734;28;20514;-76
2022/06/07 06:47:31;;;;;;;1.50;0.90;;;21.70;81.30;;;;;;5048547;28;20866;-75
2022/06/07 06:49:57;;;;;;;1.50;0.90;;;21.80;81.00;;;;;;5042452;28;20964;-76
2022/06/07 06:52:24;;;;;;;1.50;0.90;;;21.90;80.80;;;;;;5042975;28;20858;-77
2022/06/07 06:54:51;;;;;;;1.50;1.00;;;21.90;79.70;;;;;;5031822;28;20479;-76
2022/06/07 06:57:18;;;;;;;1.47;0.90;;;21.80;79.50;;;;;;5041707;28;20512;-76
2022/06/07 06:59:45;;;;;;;1.50;0.90;;;21.70;79.40;;;;;;5041280;28;20553;-77
2022/06/07 07:02:14;;;;;;;1.50;0.90;;;21.50;79.70;;;;;;5042160;28;20462;-77
2022/06/07 07:04:41;;;;;;;1.50;0.90;;;21.40;81.00;;;;;;5041902;28;21077;-77
2022/06/07 07:07:08;;;;;;;1.47;0.90;;;21.30;80.60;;;;;;5040412;28;21138;-78
2022/06/07 07:09:34;;;;;;;1.47;0.90;;;21.10;80.20;;;;;;5028688;28;20471;-76
2022/06/07 07:12:01;;;;;;;1.50;0.90;;;20.90;81.40;;;;;;5029864;28;20854;-77
2022/06/07 07:14:29;;;;;;;1.50;0.97;;;21.00;82.60;;;;;;5033788;28;20495;-77
2022/06/07 07:16:55;;;;;;;1.50;0.90;;;21.20;81.50;;;;;;5036305;28;20471;-77
2022/06/07 07:19:24;;;;;;;1.50;0.90;;;21.40;80.10;;;;;;5040634;28;20463;-77
2022/06/07 07:21:52;;;;;;;1.50;0.90;;;21.70;81.00;;;;;;5029867;28;20536;-76
2022/06/07 07:24:21;;;;;;;1.50;0.90;;;22.10;80.50;;;;;;5036741;28;20483;-77
2022/06/07 07:26:49;;;;;;;1.50;0.80;;;22.50;79.40;;;;;;5036497;28;20470;-77
2022/06/07 07:29:18;;;;;;;1.50;0.90;;;22.70;78.20;;;;;;5036998;28;20497;-76
2022/06/07 07:31:46;;;;;;;1.43;0.83;;;22.70;77.00;;;;;;5031890;28;20828;-77
2022/06/07 07:34:15;;;;;;;1.43;0.90;;;22.50;77.60;;;;;;5038755;28;20495;-76
2022/06/07 07:36:46;;;;;;;1.50;0.90;;;22.30;77.60;;;;;;5031787;28;20549;-76
2022/06/07 07:39:13;;;;;;;1.47;0.90;;;22.00;78.00;;;;;;5036520;28;20489;-76
2022/06/07 07:41:40;;;;;;;1.50;0.90;;;21.80;78.90;;;;;;5026132;28;20565;-76
2022/06/07 07:44:11;;;;;;;1.47;0.90;;;21.80;79.70;;;;;;5030503;28;20494;-77
2022/06/07 07:46:39;;;;;;;1.43;0.90;;;21.80;80.10;;;;;;5029826;28;20604;-77
2022/06/07 07:49:07;;;;;;;1.50;0.90;;;21.80;79.00;;;;;;5046826;28;20479;-76
2022/06/07 07:51:37;;;;;;;1.47;0.87;;;21.80;78.60;;;;;;5027508;28;20485;-77
2022/06/07 07:54:10;;;;;;;1.47;0.80;;;21.70;78.80;;;;;;5046614;28;20800;-76
2022/06/07 07:56:38;;;;;;;1.47;0.90;;;21.60;79.70;;;;;;5019405;28;20483;-75
2022/06/07 07:59:07;;;;;;;1.47;0.90;;;21.50;79.60;;;;;;5032134;28;20462;-75
2022/06/07 08:01:36;;;;;;;1.50;0.90;;;21.50;80.50;;;;;;5028731;28;20546;-75
2022/06/07 08:04:04;;;;;;;1.47;0.90;;;21.50;80.20;;;;;;5043746;28;20509;-75
2022/06/07 08:06:32;;;;;;;1.47;0.90;;;21.50;80.10;;;;;;5029714;28;20507;-77
2022/06/07 08:09:03;;;;;;;1.50;0.83;;;21.50;80.10;;;;;;5033848;28;20958;-77
2022/06/07 08:11:35;;;;;;;1.50;0.90;;;21.50;80.70;;;;;;5036399;28;20497;-77
2022/06/07 08:14:03;;;;;;;1.43;0.87;;;21.60;79.20;;;;;;5033614;28;20517;-75
2022/06/07 08:16:31;;;;;;;1.50;0.90;;;21.80;77.00;;;;;;5027206;28;20483;-77
2022/06/07 08:18:58;;;;;;;1.40;0.90;;;21.80;77.20;;;;;;5040790;28;20482;-76
2022/06/07 08:21:28;;;;;;;1.47;0.87;;;21.80;77.20;;;;;;5028580;28;20499;-76
2022/06/07 08:23:56;;;;;;;1.43;0.80;;;21.90;77.90;;;;;;5044144;28;20487;-77
2022/06/07 08:26:26;;;;;;;1.47;0.90;;;21.90;77.50;;;;;;5044394;28;20541;-76
2022/06/07 08:28:54;;;;;;;1.50;0.90;;;21.90;77.00;;;;;;5041320;28;20458;-77
2022/06/07 08:31:24;;;;;;;1.50;0.90;;;22.00;76.40;;;;;;5023092;28;20487;-77
2022/06/07 08:39:26;;;;;;;1.47;0.90;;;21.80;75.70;;;;;;5022514;28;20456;-76
2022/06/07 08:41:56;;;;;;;1.47;0.90;;;21.80;75.70;;;;;;5029639;28;20504;-77
2022/06/07 08:44:29;;;;;;;1.47;0.90;;;21.70;75.70;;;;;;5037128;28;21331;-75
2022/06/07 08:47:00;;;;;;;1.47;0.83;;;21.80;76.30;;;;;;5032054;28;20721;-77
2022/06/07 08:49:27;;;;;;;1.47;0.90;;;22.00;76.60;;;;;;5040101;28;20476;-76
2022/06/07 08:52:00;;;;;;;1.47;0.90;;;22.10;76.60;;;;;;5034300;28;20486;-75
2022/06/07 08:54:31;;;;;;;1.43;0.90;;;22.20;76.70;;;;;;5039342;28;20858;-75
2022/06/07 08:57:05;;;;;;;1.50;0.90;;;22.40;75.70;;;;;;5037186;28;20569;-77
2022/06/07 08:59:34;;;;;;;1.43;0.90;;;22.50;75.50;;;;;;5037400;28;20518;-77
2022/06/07 09:02:08;;;;;;;1.47;0.90;;;22.60;75.90;;;;;;5044153;28;20463;-76
2022/06/07 09:04:39;;;;;;;1.47;0.87;;;22.70;76.60;;;;;;5042506;28;20860;-76
2022/06/07 09:07:14;;;;;;;1.47;0.87;;;22.70;75.50;;;;;;5043546;28;21239;-76
2022/06/07 09:12:33;;;;;;;1.40;0.87;;;22.70;75.40;;;;;;5038298;28;20478;-77
2022/06/07 09:15:09;;;;;;;1.50;0.90;;;22.70;75.10;;;;;;5031655;28;20610;-78
2022/06/07 09:17:39;;;;;;;1.43;0.90;;;22.80;75.40;;;;;;5036580;28;20539;-77
2022/06/07 09:20:14;;;;;;;1.43;0.90;;;22.90;76.10;;;;;;5033954;28;20458;-75
2022/06/07 09:22:43;;;;;;;1.47;0.90;;;23.00;75.70;;;;;;5041855;28;20488;-76
2022/06/07 09:25:16;;;;;;;1.50;0.90;;;23.20;75.80;;;;;;5038370;28;21010;-76
2022/06/07 09:27:46;;;;;;;1.50;0.90;;;23.30;75.60;;;;;;5033490;28;20470;-77
2022/06/07 09:30:25;;;;;;;1.50;0.90;;;23.40;76.00;;;;;;5030978;28;20458;-76
2022/06/07 09:32:53;;;;;;;1.47;0.90;;;23.60;76.80;;;;;;5037479;28;20858;-76
2022/06/07 09:35:24;;;;;;;1.50;1.00;;;24.00;76.30;;;;;;5039336;28;20485;-76
2022/06/07 09:37:56;;;;;;;1.47;0.90;;;24.30;75.70;;;;;;5037133;28;20466;-75
2022/06/07 09:40:30;;;;;;;1.50;0.90;;;24.50;74.10;;;;;;5038938;28;20473;-75
2022/06/07 09:43:03;;;;;;;1.50;0.80;;;24.60;73.30;;;;;;5037903;28;20564;-75
2022/06/07 09:45:37;;;;;;;1.47;0.80;;;24.60;72.90;;;;;;5036471;28;20474;-76
2022/06/07 09:48:26;;;;;;;1.50;0.90;;;24.70;74.10;;;;;;5042937;28;20513;-76
2022/06/07 09:51:00;;;;;;;1.47;0.90;;;24.70;73.50;;;;;;5039733;28;20838;-76
2022/06/07 09:53:34;;;;;;;1.50;0.90;;;24.90;73.10;;;;;;5038913;28;21096;-76
2022/06/07 09:56:16;;;;;;;1.50;0.90;;;25.00;71.90;;;;;;5027563;28;20462;-76
2022/06/07 09:58:53;;;;;;;1.50;0.80;;;25.00;72.10;;;;;;5047055;28;20470;-76
2022/06/07 10:01:27;;;;;;;1.50;0.90;;;25.00;71.70;;;;;;5033217;28;20962;-78
2022/06/07 10:04:12;;;;;;;1.40;0.90;;;25.00;72.90;;;;;;5039660;28;20493;-77
2022/06/07 10:06:50;;;;;;;1.43;0.83;;;25.00;72.80;;;;;;5058729;28;20467;-77
2022/06/07 10:10:26;;;;;;;;;;;;;;;;;;;;;
2022/06/07 10:13:05;;;;;;;1.50;0.90;;;24.90;72.80;;;;;;4951716;22;20485;-76
2022/06/07 10:15:40;;;;;;;1.50;0.83;;;24.80;73.90;;;;;;5043587;28;20531;-78
2022/06/07 10:18:23;;;;;;;1.47;0.90;;;24.90;73.70;;;;;;5047032;28;21010;-78
2022/06/07 10:21:18;;;;;;;1.40;0.90;;;24.90;73.90;;;;;;5045934;28;20553;-75
2022/06/07 10:24:07;;;;;;;1.47;0.87;;;24.90;74.80;;;;;;5042668;28;20494;-76
2022/06/07 10:26:55;;;;;;;1.50;0.87;;;24.90;74.00;;;;;;5040587;28;21048;-76
2022/06/07 10:29:40;;;;;;;1.50;0.80;;;24.90;74.10;;;;;;5048075;28;20809;-75
2022/06/07 10:32:16;;;;;;;1.50;0.90;;;24.90;74.90;;;;;;5040397;28;20486;-76
2022/06/07 10:34:50;;;;;;;1.43;0.80;;;24.80;74.20;;;;;;5044635;28;20482;-75
2022/06/07 10:37:30;;;;;;;1.43;0.80;;;24.80;73.50;;;;;;5045772;28;20466;-76
2022/06/07 10:40:09;;;;;;;1.47;0.80;;;24.80;74.20;;;;;;5044258;28;20474;-75
2022/06/07 10:42:43;;;;;;;1.50;0.90;;;24.80;74.60;;;;;;5040613;28;20547;-76
2022/06/07 10:45:19;;;;;;;1.50;0.80;;;24.80;73.00;;;;;;5042045;28;20477;-76
2022/06/07 10:47:53;;;;;;;1.43;0.90;;;24.80;74.50;;;;;;5049346;28;20474;-78
2022/06/07 10:50:27;;;;;;;1.50;0.90;;;25.00;73.40;;;;;;5046564;28;20515;-77
2022/06/07 10:53:01;;;;;;;1.47;0.80;;;25.10;73.40;;;;;;5042841;28;20502;-78
2022/06/07 10:55:35;;;;;;;1.50;0.90;;;25.20;73.80;;;;;;5045277;28;20490;-77
2022/06/07 10:58:28;;;;;;;1.50;0.90;;;25.40;74.10;;;;;;5040481;28;20642;-78
2022/06/07 11:00:59;;;;;;;1.50;0.90;;;25.60;73.20;;;;;;5035370;28;20468;-78
2022/06/07 11:03:39;;;;;;;1.50;0.80;;;25.70;73.30;;;;;;5056789;28;20466;-78
2022/06/07 11:09:23;;;;;;;1.47;0.90;;;25.90;72.30;;;;;;5051740;28;20449;-77
2022/06/07 11:11:55;;;;;;;1.40;0.90;;;26.00;73.10;;;;;;5043772;28;20531;-78
2022/06/07 11:14:47;;;;;;;1.43;0.80;;;26.10;72.60;;;;;;5050371;28;20584;-78
2022/06/07 11:17:26;;;;;;;1.43;0.80;;;26.10;72.10;;;;;;5047211;28;20519;-77
2022/06/07 11:19:54;;;;;;;1.47;0.80;;;26.10;72.40;;;;;;5044369;28;20469;-77
2022/06/07 11:22:31;;;;;;;1.43;0.90;;;25.90;72.40;;;;;;5048011;28;20544;-76
2022/06/07 11:25:01;;;;;;;1.40;0.80;;;25.90;72.10;;;;;;5045247;28;20482;-76
2022/06/07 11:27:30;;;;;;;1.40;0.90;;;26.10;71.50;;;;;;5042695;28;20572;-76
2022/06/07 11:30:24;;;;;;;1.47;0.90;;;26.20;71.80;;;;;;5046346;28;20459;-78
2022/06/07 11:32:55;;;;;;;1.47;0.80;;;26.20;71.50;;;;;;5022954;28;20484;-75
2022/06/07 11:35:50;;;;;;;1.40;0.80;;;26.20;71.50;;;;;;5042577;28;21028;-77
2022/06/07 11:38:34;;;;;;;1.47;0.80;;;26.00;72.00;;;;;;5046368;28;20500;-76
2022/06/07 11:41:44;;;;;;;1.40;0.80;;;25.80;72.40;;;;;;5043509;28;20914;-76
2022/06/07 11:44:52;;;;;;;1.50;0.83;;;25.60;73.20;;;;;;5045730;28;20488;-76
2022/06/07 11:47:57;;;;;;;1.43;0.90;;;25.40;73.40;;;;;;5047352;28;20488;-77
2022/06/07 11:50:31;;;;;;;1.50;0.90;;;25.10;73.80;;;;;;5045375;28;20473;-77
2022/06/07 11:53:26;;;;;;;1.50;0.90;;;24.80;74.80;;;;;;5045247;28;20561;-76
2022/06/07 11:56:03;;;;;;;1.47;0.90;;;24.50;75.60;;;;;;5046084;28;20876;-76
2022/06/07 11:58:54;;;;;;;1.47;0.90;;;24.30;76.10;;;;;;5046116;28;20473;-77
2022/06/07 12:01:33;;;;;;;1.47;0.90;;;23.90;78.40;;;;;;5035568;28;20477;-77
2022/06/07 12:04:28;;;;;;;1.50;0.90;;;23.70;78.80;;;;;;5053748;28;20506;-77
2022/06/07 12:06:57;;;;;;;1.50;0.90;;;23.50;80.30;;;;;;5043005;28;20894;-75
2022/06/07 12:09:24;;;;;;;1.50;0.90;;;23.40;83.90;;;;;;5036785;28;21180;-74
2022/06/07 12:11:53;;;;;;;1.47;0.90;;;23.30;83.60;;;;;;5031314;28;20863;-74
2022/06/07 12:14:34;;;;;;;1.47;0.87;;;23.30;85.80;;;;;;5045310;28;20490;-76
2022/06/07 12:17:04;;;;;;;1.43;0.90;;;23.30;86.70;;;;;;5038877;28;20553;-75
2022/06/07 12:19:46;;;;;;;1.50;1.00;;;23.40;87.10;;;;;;5038696;28;20483;-77
2022/06/07 12:22:15;;;;;;;1.47;0.90;;;23.40;86.50;;;;;;5038302;28;20476;-77
2022/06/07 12:24:46;;;;;;;1.50;1.00;;;23.50;87.80;;;;;;5041989;28;20492;-77
2022/06/07 12:27:26;;;;;;;1.40;0.87;;;23.60;85.50;;;;;;5038474;28;20571;-76
2022/06/07 12:29:55;;;;;;;1.50;0.90;;;23.80;85.20;;;;;;5045103;28;20454;-76
2022/06/07 12:32:29;;;;;;;1.43;0.90;;;24.00;84.70;;;;;;5041311;28;20466;-77
2022/06/07 12:35:19;;;;;;;1.47;0.90;;;24.20;83.60;;;;;;5045454;28;20565;-77
2022/06/07 12:37:51;;;;;;;2.03;1.67;;;24.30;82.70;;;;;;5044808;28;20470;-78
2022/06/07 12:40:25;;;;;;;1.50;0.87;;;24.40;81.10;;;;;;5050213;28;20554;-76
2022/06/07 12:42:53;;;;;;;1.47;0.90;;;24.40;80.70;;;;;;5036187;28;21036;-77
2022/06/07 12:45:23;;;;;;;1.47;0.90;;;24.30;80.80;;;;;;5044869;28;20862;-75
2022/06/07 12:47:56;;;;;;;1.50;0.87;;;24.20;81.20;;;;;;5046097;28;20485;-76
2022/06/07 12:50:29;;;;;;;1.47;0.80;;;24.10;81.40;;;;;;5043935;28;20497;-75
2022/06/07 12:52:56;;;;;;;1.47;0.80;;;23.90;81.60;;;;;;5044257;28;20613;-76
2022/06/07 12:55:26;;;;;;;1.47;0.90;;;23.80;82.70;;;;;;5042780;28;20530;-75
2022/06/07 12:57:58;;;;;;;1.43;0.90;;;23.70;83.20;;;;;;5039955;28;20633;-76
2022/06/07 13:00:28;;;;;;;1.43;0.90;;;23.50;85.30;;;;;;5037652;28;20462;-74
2022/06/07 13:03:00;;;;;;;1.50;0.90;;;23.20;86.20;;;;;;5038477;28;20906;-75
2022/06/07 13:05:33;;;;;;;1.50;0.90;;;23.00;87.80;;;;;;5043376;28;20482;-74
2022/06/07 13:08:02;;;;;;;1.47;0.83;;;22.70;90.90;;;;;;5039699;28;20466;-75
2022/06/07 13:10:34;;;;;;;1.50;0.90;;;22.20;93.60;;;;;;5037099;28;20735;-74
2022/06/07 13:13:06;;;;;;;1.43;0.80;;;22.00;94.60;;;;;;5039885;28;20490;-76
2022/06/07 13:15:36;;;;;;;1.50;0.90;;;21.80;95.70;;;;;;5040428;28;20907;-77
2022/06/07 13:18:07;;;;;;;1.43;0.90;;;21.70;96.30;;;;;;5045472;28;20990;-76
2022/06/07 13:20:38;;;;;;;1.47;0.90;;;21.60;96.90;;;;;;5046409;28;21027;-76
2022/06/07 13:23:21;;;;;;;1.50;0.90;;;21.60;97.10;;;;;;5049688;28;20477;-75
2022/06/07 13:25:49;;;;;;;1.50;0.90;;;21.50;97.00;;;;;;5032029;28;20568;-76
2022/06/07 13:28:20;;;;;;;1.47;0.90;;;21.50;98.00;;;;;;5053970;28;21077;-77